Independence — WDD6659 — position and weather

sailwx.info

Track history (hours):
 
Tides and Currents Weather Stations Pressure Air Temp Water Temp Dewpoint Dewpoint Depression Visibility Wind Speed Wind Dir Waves Ship Positions

Independence

Owner: Sortwell, Inc. DBA AmNav Maritime Services, Oakland, CA. More information available from US FCC via Universal Licensing System and Coast Guard Vessel Documentation Center.

Last reported at 2015-Feb-01 03:24 UTC. Time now 2015-Feb-01 07:09 UTC.
Position N 33°44' W 118°15'.

Length 24 m; draft 4.9 m.

Type: Tug. MMSI: 367175860.

Date/timePositionNaut miles runAvg speedWind from/ knotsBaromVisibWave heightAir tempDewpointWater temp
2015-Feb-01 03:24N 33°44' W 118°15'2 0.2
2015-Jan-31 14:33N 33°46' W 118°14'3 1.4
2015-Jan-31 12:25N 33°43' W 118°12'2 0.2
2015-Jan-31 03:15N 33°44' W 118°15'0 0.2
2015-Jan-31 01:23N 33°44' W 118°15'2 3.0
2015-Jan-31 00:33N 33°46' W 118°13'1 0.6
2015-Jan-30 23:33N 33°46' W 118°14'1 1.3
2015-Jan-30 22:33N 33°45' W 118°13'3 3.1
2015-Jan-30 21:31N 33°44' W 118°17'0 0.0
2015-Jan-29 22:06N 33°44' W 118°17'3 0.2
2015-Jan-29 06:33N 33°45' W 118°13'2 1.6
2015-Jan-29 05:33N 33°46' W 118°13'3 1.3
2015-Jan-29 03:18N 33°45' W 118°16'3 0.2
2015-Jan-28 13:33N 33°44' W 118°12'1 0.5
2015-Jan-28 12:33N 33°45' W 118°13'2 2.2
2015-Jan-28 11:27N 33°43' W 118°14'2 0.4
2015-Jan-28 05:12N 33°45' W 118°16'0 0.4
2015-Jan-28 04:29N 33°45' W 118°16'3 2.9
2015-Jan-28 03:33N 33°43' W 118°14'2 1.9
2015-Jan-28 02:32N 33°44' W 118°17'0 0.0
2015-Jan-28 01:33N 33°44' W 118°17'0 0.0
2015-Jan-28 00:30N 33°44' W 118°17'0 0.0
2015-Jan-27 23:33N 33°44' W 118°17'5 0.2
2015-Jan-27 00:29N 33°44' W 118°11'1 0.1
2015-Jan-26 14:33N 33°45' W 118°12'1 0.8
2015-Jan-26 13:32N 33°44' W 118°11'2 0.8
2015-Jan-26 11:25N 33°43' W 118°13'2 0.2
2015-Jan-26 02:31N 33°44' W 118°11'1 0.6
2015-Jan-26 01:22N 33°44' W 118°12'1 0.0
2015-Jan-25 08:28N 33°44' W 118°12'0 0.5
2015-Jan-25 07:31N 33°44' W 118°12'3 0.6
2015-Jan-25 02:07N 33°45' W 118°16'0 0.8
2015-Jan-25 01:33N 33°45' W 118°16'2 0.1
2015-Jan-24 07:29N 33°44' W 118°17'0 0.1
2015-Jan-24 06:33N 33°44' W 118°17'3 3.4
2015-Jan-24 05:32N 33°45' W 118°13'0 0.2
2015-Jan-24 04:05N 33°45' W 118°12'0 0.2
2015-Jan-24 03:25N 33°45' W 118°12'2 2.3
2015-Jan-24 02:33N 33°43' W 118°11'2 1.7
2015-Jan-24 01:33N 33°44' W 118°12'1 0.1
2015-Jan-23 17:32N 33°45' W 118°13'3 3.0
2015-Jan-23 16:25N 33°44' W 118°09'6 1.4
2015-Jan-23 12:04N 33°44' W 118°17'0 0.0
2015-Jan-23 11:25N 33°44' W 118°17'0 0.0
2015-Jan-23 10:30N 33°44' W 118°17'0 0.0
2015-Jan-23 05:25N 33°44' W 118°17'0 0.0
2015-Jan-23 04:15N 33°44' W 118°17'0 0.0
2015-Jan-23 03:04N 33°44' W 118°17'1 0.1
2015-Jan-22 22:32N 33°43' W 118°16'3 3.1
2015-Jan-22 21:28N 33°45' W 118°13'2 2.2
2015-Jan-22 20:34N 33°43' W 118°11'2 2.0
2015-Jan-22 19:34N 33°41' W 118°11'5 4.7
2015-Jan-22 18:33N 33°44' W 118°16'0 0.2
2015-Jan-22 17:30N 33°44' W 118°17'0 0.0
2015-Jan-22 16:29N 33°44' W 118°17'0 0.0
2015-Jan-22 15:31N 33°44' W 118°17'0 0.0
2015-Jan-22 14:33N 33°44' W 118°17'0 0.0
2015-Jan-22 13:33N 33°44' W 118°17'0 0.0
2015-Jan-22 12:32N 33°44' W 118°17'0 0.0
2015-Jan-22 11:23N 33°44' W 118°17'0 0.0
2015-Jan-22 10:33N 33°44' W 118°17'0 0.0
2015-Jan-22 09:33N 33°44' W 118°17'0 0.0
2015-Jan-22 08:33N 33°44' W 118°17'0 0.0
2015-Jan-22 07:33N 33°44' W 118°17'0 0.0
2015-Jan-22 06:30N 33°44' W 118°17'0 0.0
2015-Jan-22 05:33N 33°44' W 118°17'0 0.0
2015-Jan-22 04:15N 33°44' W 118°17'4 5.7
2015-Jan-22 03:33N 33°45' W 118°12'  
Track history (hours):
 
Tides and Currents Weather Stations Pressure Air Temp Water Temp Dewpoint Dewpoint Depression Visibility Wind Speed Wind Dir Waves Ship Positions

Independence

Owner: Sortwell, Inc. DBA AmNav Maritime Services, Oakland, CA. More information available from US FCC via Universal Licensing System and Coast Guard Vessel Documentation Center.

Last reported at 2015-Feb-01 03:24 UTC. Time now 2015-Feb-01 07:09 UTC.
Position N 33°44' W 118°15'.

Length 24 m; draft 4.9 m.

Type: Tug. MMSI: 367175860.

Date/timePositionNaut miles runAvg speedWind from/ knotsBaromVisibWave heightAir tempDewpointWater temp
2015-Feb-01 03:24N 33°44' W 118°15'2 0.2
2015-Jan-31 14:33N 33°46' W 118°14'3 1.4
2015-Jan-31 12:25N 33°43' W 118°12'2 0.2
2015-Jan-31 03:15N 33°44' W 118°15'0 0.2
2015-Jan-31 01:23N 33°44' W 118°15'2 3.0
2015-Jan-31 00:33N 33°46' W 118°13'1 0.6
2015-Jan-30 23:33N 33°46' W 118°14'1 1.3
2015-Jan-30 22:33N 33°45' W 118°13'3 3.1
2015-Jan-30 21:31N 33°44' W 118°17'0 0.0
2015-Jan-29 22:06N 33°44' W 118°17'3 0.2
2015-Jan-29 06:33N 33°45' W 118°13'2 1.6
2015-Jan-29 05:33N 33°46' W 118°13'3 1.3
2015-Jan-29 03:18N 33°45' W 118°16'3 0.2
2015-Jan-28 13:33N 33°44' W 118°12'1 0.5
2015-Jan-28 12:33N 33°45' W 118°13'2 2.2
2015-Jan-28 11:27N 33°43' W 118°14'2 0.4
2015-Jan-28 05:12N 33°45' W 118°16'0 0.4
2015-Jan-28 04:29N 33°45' W 118°16'3 2.9
2015-Jan-28 03:33N 33°43' W 118°14'2 1.9
2015-Jan-28 02:32N 33°44' W 118°17'0 0.0
2015-Jan-28 01:33N 33°44' W 118°17'0 0.0
2015-Jan-28 00:30N 33°44' W 118°17'0 0.0
2015-Jan-27 23:33N 33°44' W 118°17'5 0.2
2015-Jan-27 00:29N 33°44' W 118°11'1 0.1
2015-Jan-26 14:33N 33°45' W 118°12'1 0.8
2015-Jan-26 13:32N 33°44' W 118°11'2 0.8
2015-Jan-26 11:25N 33°43' W 118°13'2 0.2
2015-Jan-26 02:31N 33°44' W 118°11'1 0.6
2015-Jan-26 01:22N 33°44' W 118°12'1 0.0
2015-Jan-25 08:28N 33°44' W 118°12'0 0.5
2015-Jan-25 07:31N 33°44' W 118°12'3 0.6
2015-Jan-25 02:07N 33°45' W 118°16'0 0.8
2015-Jan-25 01:33N 33°45' W 118°16'2 0.1
2015-Jan-24 07:29N 33°44' W 118°17'0 0.1
2015-Jan-24 06:33N 33°44' W 118°17'3 3.4
2015-Jan-24 05:32N 33°45' W 118°13'0 0.2
2015-Jan-24 04:05N 33°45' W 118°12'0 0.2
2015-Jan-24 03:25N 33°45' W 118°12'2 2.3
2015-Jan-24 02:33N 33°43' W 118°11'2 1.7
2015-Jan-24 01:33N 33°44' W 118°12'1 0.1
2015-Jan-23 17:32N 33°45' W 118°13'3 3.0
2015-Jan-23 16:25N 33°44' W 118°09'6 1.4
2015-Jan-23 12:04N 33°44' W 118°17'0 0.0
2015-Jan-23 11:25N 33°44' W 118°17'0 0.0
2015-Jan-23 10:30N 33°44' W 118°17'0 0.0
2015-Jan-23 05:25N 33°44' W 118°17'0 0.0
2015-Jan-23 04:15N 33°44' W 118°17'0 0.0
2015-Jan-23 03:04N 33°44' W 118°17'1 0.1
2015-Jan-22 22:32N 33°43' W 118°16'3 3.1
2015-Jan-22 21:28N 33°45' W 118°13'2 2.2
2015-Jan-22 20:34N 33°43' W 118°11'2 2.0
2015-Jan-22 19:34N 33°41' W 118°11'5 4.7
2015-Jan-22 18:33N 33°44' W 118°16'0 0.2
2015-Jan-22 17:30N 33°44' W 118°17'0 0.0
2015-Jan-22 16:29N 33°44' W 118°17'0 0.0
2015-Jan-22 15:31N 33°44' W 118°17'0 0.0
2015-Jan-22 14:33N 33°44' W 118°17'0 0.0
2015-Jan-22 13:33N 33°44' W 118°17'0 0.0
2015-Jan-22 12:32N 33°44' W 118°17'0 0.0
2015-Jan-22 11:23N 33°44' W 118°17'0 0.0
2015-Jan-22 10:33N 33°44' W 118°17'0 0.0
2015-Jan-22 09:33N 33°44' W 118°17'0 0.0
2015-Jan-22 08:33N 33°44' W 118°17'0 0.0
2015-Jan-22 07:33N 33°44' W 118°17'0 0.0
2015-Jan-22 06:30N 33°44' W 118°17'0 0.0
2015-Jan-22 05:33N 33°44' W 118°17'0 0.0
2015-Jan-22 04:15N 33°44' W 118°17'4 5.7
2015-Jan-22 03:33N 33°45' W 118°12'  

Dump ship's entire track history